Time,TemperatureF,DewpointF,PressureIn,WindDirection,WindDirectionDegrees,WindSpeedMPH,WindSpeedGustMPH,Humidity,HourlyPrecipIn,Conditions,Clouds,dailyrainin,SoftwareType,DateUTC
2013-07-18 00:01:00,55.4,54.3,29.90,NNE,22,2.2,-999.0,96,-99.99,,,0.00,Acu-Link.com,2013-07-18 07:01:00,
2013-07-18 00:17:00,55.2,54.1,29.90,WNW,292,2.2,-999.0,96,-99.99,,,0.00,Acu-Link.com,2013-07-18 07:17:00,
2013-07-18 00:32:00,55.0,54.2,29.89,NW,315,3.7,-999.0,97,-99.99,,,0.00,Acu-Link.com,2013-07-18 07:32:00,
2013-07-18 00:47:00,55.0,54.2,29.90,NNW,337,3.2,-999.0,97,-99.99,,,0.00,Acu-Link.com,2013-07-18 07:47:00,
2013-07-18 01:02:00,55.0,54.2,29.89,NNW,337,6.3,-999.0,97,-99.99,,,0.00,Acu-Link.com,2013-07-18 08:02:00,
2013-07-18 01:18:00,54.9,54.1,29.90,NW,315,3.7,-999.0,97,-99.99,,,0.00,Acu-Link.com,2013-07-18 08:18:00,
2013-07-18 01:33:00,54.9,54.1,29.89,NNE,22,2.2,-999.0,97,-99.99,,,0.00,Acu-Link.com,2013-07-18 08:33:00,
2013-07-18 01:48:00,54.9,54.1,29.89,North,0,4.7,-999.0,97,-99.99,,,0.00,Acu-Link.com,2013-07-18 08:48:00,
2013-07-18 02:03:00,54.7,53.9,29.89,NNW,337,2.7,-999.0,97,-99.99,,,0.00,Acu-Link.com,2013-07-18 09:03:00,
2013-07-18 02:18:00,54.9,54.1,29.89,WSW,247,0.0,-999.0,97,-99.99,,,0.00,Acu-Link.com,2013-07-18 09:18:00,
2013-07-18 02:34:00,54.9,54.1,29.88,North,0,3.2,-999.0,97,-99.99,,,0.00,Acu-Link.com,2013-07-18 09:34:00,
2013-07-18 02:49:00,54.9,54.1,29.88,North,0,1.7,-999.0,97,-99.99,,,0.00,Acu-Link.com,2013-07-18 09:49:00,
2013-07-18 03:05:00,54.7,53.9,29.87,SW,225,4.7,-999.0,97,-99.99,,,0.00,Acu-Link.com,2013-07-18 10:05:00,
2013-07-18 03:20:00,54.5,53.7,29.87,ESE,112,3.7,-999.0,97,-99.99,,,0.00,Acu-Link.com,2013-07-18 10:20:00,
2013-07-18 03:35:00,54.3,53.5,29.87,North,0,1.7,-999.0,97,-99.99,,,0.00,Acu-Link.com,2013-07-18 10:35:00,
2013-07-18 03:50:00,54.3,53.7,29.87,SSE,157,2.2,-999.0,98,-99.99,,,0.00,Acu-Link.com,2013-07-18 10:50:00,
2013-07-18 04:05:00,54.3,53.7,29.87,ENE,67,3.2,-999.0,98,-99.99,,,0.00,Acu-Link.com,2013-07-18 11:05:00,
2013-07-18 04:20:00,54.3,53.7,29.86,North,0,0.0,-999.0,98,-99.99,,,0.00,Acu-Link.com,2013-07-18 11:20:00,
2013-07-18 04:36:00,54.1,53.5,29.86,West,270,2.7,-999.0,98,-99.99,,,0.00,Acu-Link.com,2013-07-18 11:36:00,
2013-07-18 04:51:00,54.3,53.7,29.86,NNE,22,4.2,-999.0,98,-99.99,,,0.00,Acu-Link.com,2013-07-18 11:51:00,
2013-07-18 05:06:00,54.3,53.7,29.86,North,0,5.3,-999.0,98,-99.99,,,0.00,Acu-Link.com,2013-07-18 12:06:00,
2013-07-18 05:22:00,54.3,53.7,29.86,East,90,3.2,-999.0,98,-99.99,,,0.00,Acu-Link.com,2013-07-18 12:22:00,
2013-07-18 05:37:00,54.3,53.7,29.86,WNW,292,1.7,-999.0,98,-99.99,,,0.00,Acu-Link.com,2013-07-18 12:37:00,
2013-07-18 05:52:00,54.3,53.7,29.87,East,90,2.7,-999.0,98,-99.99,,,0.00,Acu-Link.com,2013-07-18 12:52:00,
2013-07-18 06:08:00,54.1,53.5,29.87,NW,315,1.7,-999.0,98,-99.99,,,0.00,Acu-Link.com,2013-07-18 13:08:00,
2013-07-18 06:23:00,54.1,53.5,29.88,West,270,3.7,-999.0,98,-99.99,,,0.00,Acu-Link.com,2013-07-18 13:23:00,
2013-07-18 06:38:00,54.1,53.5,29.88,WNW,292,4.7,-999.0,98,-99.99,,,0.00,Acu-Link.com,2013-07-18 13:38:00,
2013-07-18 06:53:00,54.1,53.5,29.88,NNW,337,6.3,-999.0,98,-99.99,,,0.00,Acu-Link.com,2013-07-18 13:53:00,
2013-07-18 07:09:00,54.1,53.5,29.88,ESE,112,1.1,-999.0,98,-99.99,,,0.00,Acu-Link.com,2013-07-18 14:09:00,
2013-07-18 07:24:00,54.3,53.7,29.88,West,270,2.7,-999.0,98,-99.99,,,0.00,Acu-Link.com,2013-07-18 14:24:00,
2013-07-18 07:39:00,54.9,54.3,29.89,NE,45,1.1,-999.0,98,-99.99,,,0.00,Acu-Link.com,2013-07-18 14:39:00,
2013-07-18 07:55:00,55.2,54.4,29.89,East,90,0.0,-999.0,97,-99.99,,,0.00,Acu-Link.com,2013-07-18 14:55:00,
2013-07-18 08:10:00,55.6,54.5,29.89,ESE,112,1.1,-999.0,96,-99.99,,,0.00,Acu-Link.com,2013-07-18 15:10:00,
2013-07-18 08:25:00,55.8,54.1,29.89,WNW,292,2.7,-999.0,94,-99.99,,,0.00,Acu-Link.com,2013-07-18 15:25:00,
2013-07-18 08:41:00,56.8,54.5,29.90,WNW,292,2.7,-999.0,92,-99.99,,,0.00,Acu-Link.com,2013-07-18 15:41:00,
2013-07-18 08:56:00,57.6,54.4,29.89,WNW,292,2.7,-999.0,89,-99.99,,,0.00,Acu-Link.com,2013-07-18 15:56:00,
2013-07-18 09:11:00,58.1,54.6,29.89,WSW,247,3.7,-999.0,88,-99.99,,,0.00,Acu-Link.com,2013-07-18 16:11:00,
2013-07-18 09:26:00,58.3,54.4,29.89,NNW,337,1.1,-999.0,87,-99.99,,,0.00,Acu-Link.com,2013-07-18 16:26:00,
2013-07-18 09:42:00,59.7,54.9,29.88,NNE,22,1.7,-999.0,84,-99.99,,,0.00,Acu-Link.com,2013-07-18 16:42:00,
2013-07-18 09:57:00,60.8,54.9,29.88,West,270,2.7,-999.0,81,-99.99,,,0.00,Acu-Link.com,2013-07-18 16:57:00,
2013-07-18 10:12:00,63.5,55.1,29.88,North,0,5.3,-999.0,74,-99.99,,,0.00,Acu-Link.com,2013-07-18 17:12:00,
2013-07-18 10:27:00,64.9,55.3,29.88,NW,315,6.8,-999.0,71,-99.99,,,0.00,Acu-Link.com,2013-07-18 17:27:00,
2013-07-18 10:42:00,65.8,55.7,29.88,North,0,5.8,-999.0,70,-99.99,,,0.00,Acu-Link.com,2013-07-18 17:42:00,
2013-07-18 10:58:00,66.4,55.9,29.88,SSW,202,3.2,-999.0,69,-99.99,,,0.00,Acu-Link.com,2013-07-18 17:58:00,
2013-07-18 11:13:00,66.7,55.4,29.87,West,270,4.7,-999.0,67,-99.99,,,0.00,Acu-Link.com,2013-07-18 18:13:00,
2013-07-18 11:28:00,66.7,55.8,29.88,West,270,5.3,-999.0,68,-99.99,,,0.00,Acu-Link.com,2013-07-18 18:28:00,
2013-07-18 11:43:00,66.2,55.3,29.87,ENE,67,5.3,-999.0,68,-99.99,,,0.00,Acu-Link.com,2013-07-18 18:43:00,
2013-07-18 11:59:00,66.4,55.5,29.88,West,270,4.7,-999.0,68,-99.99,,,0.00,Acu-Link.com,2013-07-18 18:59:00,
2013-07-18 12:14:00,65.7,55.2,29.87,WNW,292,4.2,-999.0,69,-99.99,,,0.00,Acu-Link.com,2013-07-18 19:14:00,
2013-07-18 12:29:00,66.2,55.3,29.87,SSE,157,4.2,-999.0,68,-99.99,,,0.00,Acu-Link.com,2013-07-18 19:29:00,
2013-07-18 12:44:00,66.0,55.5,29.86,West,270,7.3,-999.0,69,-99.99,,,0.00,Acu-Link.com,2013-07-18 19:44:00,
2013-07-18 12:59:00,65.5,55.1,29.85,WNW,292,7.3,-999.0,69,-99.99,,,0.00,Acu-Link.com,2013-07-18 19:59:00,
2013-07-18 13:15:00,66.0,55.1,29.86,North,0,11.9,-999.0,68,-99.99,,,0.00,Acu-Link.com,2013-07-18 20:15:00,
2013-07-18 13:30:00,65.8,55.3,29.85,NW,315,8.9,-999.0,69,-99.99,,,0.00,Acu-Link.com,2013-07-18 20:30:00,
2013-07-18 13:45:00,66.0,55.5,29.85,NNW,337,8.3,-999.0,69,-99.99,,,0.00,Acu-Link.com,2013-07-18 20:45:00,
2013-07-18 14:00:00,67.1,55.8,29.85,NNW,337,7.3,-999.0,67,-99.99,,,0.00,Acu-Link.com,2013-07-18 21:00:00,
2013-07-18 14:16:00,67.3,55.5,29.84,SSW,202,9.9,-999.0,66,-99.99,,,0.00,Acu-Link.com,2013-07-18 21:16:00,
2013-07-18 14:31:00,68.4,56.2,29.84,West,270,4.2,-999.0,65,-99.99,,,0.00,Acu-Link.com,2013-07-18 21:31:00,
2013-07-18 14:46:00,66.7,55.4,29.84,North,0,12.5,-999.0,67,-99.99,,,0.00,Acu-Link.com,2013-07-18 21:46:00,
2013-07-18 15:01:00,66.0,55.1,29.83,WSW,247,11.4,-999.0,68,-99.99,,,0.00,Acu-Link.com,2013-07-18 22:01:00,
2013-07-18 15:16:00,66.0,55.1,29.82,North,0,6.8,-999.0,68,-99.99,,,0.00,Acu-Link.com,2013-07-18 22:16:00,
2013-07-18 15:32:00,65.3,54.9,29.82,South,180,5.3,-999.0,69,-99.99,,,0.00,Acu-Link.com,2013-07-18 22:32:00,
2013-07-18 15:47:00,69.8,55.7,29.82,North,0,6.8,-999.0,61,-99.99,,,0.00,Acu-Link.com,2013-07-18 22:47:00,
2013-07-18 16:02:00,68.9,56.2,29.81,West,270,8.9,-999.0,64,-99.99,,,0.00,Acu-Link.com,2013-07-18 23:02:00,
2013-07-18 16:17:00,68.9,56.2,29.80,NNE,22,3.2,-999.0,64,-99.99,,,0.00,Acu-Link.com,2013-07-18 23:17:00,
2013-07-18 16:32:00,68.7,56.0,29.80,SSW,202,5.3,-999.0,64,-99.99,,,0.00,Acu-Link.com,2013-07-18 23:32:00,
2013-07-18 16:47:00,67.8,56.0,29.80,South,180,5.8,-999.0,66,-99.99,,,0.00,Acu-Link.com,2013-07-18 23:47:00,
2013-07-18 17:03:00,65.8,55.3,29.79,SW,225,4.7,-999.0,69,-99.99,,,0.00,Acu-Link.com,2013-07-19 00:03:00,
2013-07-18 17:18:00,65.1,55.1,29.79,North,0,10.9,-999.0,70,-99.99,,,0.00,Acu-Link.com,2013-07-19 00:18:00,
2013-07-18 17:33:00,64.9,55.3,29.79,SSE,157,7.3,-999.0,71,-99.99,,,0.00,Acu-Link.com,2013-07-19 00:33:00,
2013-07-18 17:48:00,62.2,54.5,29.79,ESE,112,5.8,-999.0,76,-99.99,,,0.00,Acu-Link.com,2013-07-19 00:48:00,
2013-07-18 18:03:00,62.1,54.4,29.79,NNE,22,5.8,-999.0,76,-99.99,,,0.00,Acu-Link.com,2013-07-19 01:03:00,
2013-07-18 18:18:00,62.8,55.1,29.79,NW,315,4.2,-999.0,76,-99.99,,,0.00,Acu-Link.com,2013-07-19 01:18:00,
2013-07-18 18:33:00,62.2,54.9,29.79,SSW,202,1.7,-999.0,77,-99.99,,,0.00,Acu-Link.com,2013-07-19 01:33:00,
2013-07-18 18:48:00,60.3,54.1,29.79,NW,315,5.8,-999.0,80,-99.99,,,0.00,Acu-Link.com,2013-07-19 01:48:00,
2013-07-18 19:04:00,58.5,53.7,29.78,WNW,292,8.9,-999.0,84,-99.99,,,0.00,Acu-Link.com,2013-07-19 02:04:00,
2013-07-18 19:19:00,56.8,53.6,29.79,NNW,337,10.9,-999.0,89,-99.99,,,0.00,Acu-Link.com,2013-07-19 02:19:00,
2013-07-18 19:34:00,56.3,53.4,29.79,SW,225,4.7,-999.0,90,-99.99,,,0.00,Acu-Link.com,2013-07-19 02:34:00,
2013-07-18 19:50:00,55.6,53.3,29.79,South,180,7.3,-999.0,92,-99.99,,,0.00,Acu-Link.com,2013-07-19 02:50:00,
2013-07-18 20:05:00,55.4,53.4,29.79,West,270,4.2,-999.0,93,-99.99,,,0.00,Acu-Link.com,2013-07-19 03:05:00,
2013-07-18 20:20:00,55.0,53.3,29.79,NNE,22,2.2,-999.0,94,-99.99,,,0.00,Acu-Link.com,2013-07-19 03:20:00,
2013-07-18 20:35:00,55.0,53.3,29.79,NW,315,3.2,-999.0,94,-99.99,,,0.00,Acu-Link.com,2013-07-19 03:35:00,
2013-07-18 20:51:00,54.9,53.5,29.78,ESE,112,6.8,-999.0,95,-99.99,,,0.00,Acu-Link.com,2013-07-19 03:51:00,
2013-07-18 21:06:00,54.7,53.3,29.78,North,0,6.3,-999.0,95,-99.99,,,0.00,Acu-Link.com,2013-07-19 04:06:00,
2013-07-18 21:21:00,54.5,53.4,29.79,NNE,22,2.2,-999.0,96,-99.99,,,0.00,Acu-Link.com,2013-07-19 04:21:00,
2013-07-18 21:36:00,54.5,53.4,29.79,NNE,22,3.7,-999.0,96,-99.99,,,0.00,Acu-Link.com,2013-07-19 04:36:00,
2013-07-18 21:51:00,54.7,53.6,29.80,East,90,2.7,-999.0,96,-99.99,,,0.00,Acu-Link.com,2013-07-19 04:51:00,
2013-07-18 22:06:00,54.7,53.6,29.80,West,270,3.2,-999.0,96,-99.99,,,0.00,Acu-Link.com,2013-07-19 05:06:00,
2013-07-18 22:22:00,54.9,53.8,29.80,NW,315,4.2,-999.0,96,-99.99,,,0.00,Acu-Link.com,2013-07-19 05:22:00,
2013-07-18 22:37:00,54.9,53.8,29.80,NNE,22,2.7,-999.0,96,-99.99,,,0.00,Acu-Link.com,2013-07-19 05:37:00,
2013-07-18 22:52:00,54.9,53.8,29.80,NW,315,5.3,-999.0,96,-99.99,,,0.00,Acu-Link.com,2013-07-19 05:52:00,
2013-07-18 23:07:00,55.0,53.9,29.80,NNW,337,5.8,-999.0,96,-99.99,,,0.00,Acu-Link.com,2013-07-19 06:07:00,
2013-07-18 23:22:00,54.9,53.8,29.80,ESE,112,1.7,-999.0,96,-99.99,,,0.00,Acu-Link.com,2013-07-19 06:22:00,
2013-07-18 23:38:00,55.0,53.6,29.80,North,0,4.2,-999.0,95,-99.99,,,0.00,Acu-Link.com,2013-07-19 06:38:00,
2013-07-18 23:53:00,54.9,53.5,29.80,NNE,22,2.7,-999.0,95,-99.99,,,0.00,Acu-Link.com,2013-07-19 06:53:00,